aviador You're here:

KMKG Decoded Metar

MUSKEGON in MI, USA
Report Time2017-11-24 10:55:00
UTC Time2017-11-24 11:18:46
Flight Rules vfr VFR
Wind210° at 14 kt
W.Decomp.*RWY 24: 12.6 kt HW 6.1 kt LCW
RWY 14: 3.9 kt HW 13.5 kt RCW
W.Rank210° ranks 4
Current wind is above 210° avg. (11.1)
Visibility9999 m
Phenomena:N/A
Clouds:Overcast 100 Hf
Expected CloudBase > 2,000 ft AGL from Temp-Dew spread
Ceiling10,000 ft
Temp07°C (ISA -7)
Dew Point02°C (71% RH)
AAT0.3°C
QNH1008 hPa
Density Alt85 ft
Elevation627 ft
Report Wrong Elevation
Raw Report
KMKG 241055Z 21014KT 10SM OVC100 07/02 A2976 RMK AO2 SLP082
T00720017=

Extra information for KMKG:More info

Metar Taf Metar & Taf Last 4 Metars F.Rules Stats Wind Profile Meteogram Temp Stats Airport Information Weather charts Add Link Nearby VenuesMetar ALERT Operation Metar Decoded Social comments

AIRNAV info for KMKG